createdAt,value
2022-12-24T00:01:38.994Z,1.30
2022-12-24T00:04:06.083Z,1.35
2022-12-24T00:06:33.173Z,1.30
2022-12-24T00:09:00.246Z,1.25
2022-12-24T00:11:27.366Z,1.50
2022-12-24T00:13:54.434Z,1.15
2022-12-24T00:16:21.623Z,1.35
2022-12-24T00:18:48.750Z,1.40
2022-12-24T00:21:16.027Z,1.30
2022-12-24T00:23:43.253Z,1.40
2022-12-24T00:26:10.351Z,1.40
2022-12-24T00:28:37.419Z,1.17
2022-12-24T00:31:04.530Z,1.33
2022-12-24T00:33:31.619Z,1.30
2022-12-24T00:35:58.836Z,1.20
2022-12-24T00:38:25.902Z,1.75
2022-12-24T00:40:52.984Z,1.40
2022-12-24T00:43:20.042Z,1.15
2022-12-24T00:45:47.135Z,1.13
2022-12-24T00:48:14.258Z,1.17
2022-12-24T00:50:41.423Z,1.08
2022-12-24T00:53:08.533Z,1.40
2022-12-24T00:55:35.605Z,1.02
2022-12-24T00:58:02.664Z,1.27
2022-12-24T01:00:29.887Z,1.15
2022-12-24T01:02:57.141Z,1.30
2022-12-24T01:05:24.420Z,1.50
2022-12-24T01:07:51.496Z,1.20
2022-12-24T01:10:18.640Z,1.20
2022-12-24T01:12:45.761Z,1.02
2022-12-24T01:15:12.910Z,1.08
2022-12-24T01:17:39.987Z,1.10
2022-12-24T01:20:07.070Z,1.27
2022-12-24T01:22:34.131Z,1.10
2022-12-24T01:25:01.219Z,1.10
2022-12-24T01:27:28.369Z,1.20
2022-12-24T01:29:55.460Z,0.98
2022-12-24T01:32:22.643Z,1.02
2022-12-24T01:34:49.950Z,1.10
2022-12-24T01:37:17.031Z,1.20
2022-12-24T01:39:44.092Z,1.02
2022-12-24T01:42:30.485Z,1.08
2022-12-24T01:44:57.565Z,1.13
2022-12-24T01:47:24.652Z,1.15
2022-12-24T01:49:51.798Z,1.02
2022-12-24T01:52:18.887Z,1.10
2022-12-24T01:54:45.963Z,1.20
2022-12-24T01:57:13.025Z,1.00
2022-12-24T01:59:40.253Z,1.10
2022-12-24T02:02:07.565Z,1.00
2022-12-24T02:04:34.821Z,0.95
2022-12-24T02:07:01.913Z,0.95
2022-12-24T02:09:29.046Z,1.10
2022-12-24T02:11:56.249Z,1.00
2022-12-24T02:14:23.314Z,0.90
2022-12-24T02:16:50.382Z,1.10
2022-12-24T02:19:17.468Z,0.85
2022-12-24T02:21:44.548Z,1.00
2022-12-24T02:24:11.632Z,1.10
2022-12-24T02:26:38.716Z,1.00
2022-12-24T02:29:05.803Z,1.60
2022-12-24T02:31:33.008Z,1.10
2022-12-24T02:34:00.148Z,0.90
2022-12-24T02:36:27.231Z,1.08
2022-12-24T02:38:54.339Z,1.15
2022-12-24T02:41:21.670Z,1.10
2022-12-24T02:43:48.824Z,0.93
2022-12-24T02:46:15.946Z,1.33
2022-12-24T02:48:43.119Z,0.90
2022-12-24T02:51:10.233Z,1.02
2022-12-24T02:53:37.313Z,1.00
2022-12-24T02:56:04.495Z,1.00
2022-12-24T02:58:31.570Z,1.10
2022-12-24T03:00:58.704Z,1.00
2022-12-24T03:03:26.000Z,1.10
2022-12-24T03:05:53.430Z,0.90
2022-12-24T03:08:20.496Z,0.95
2022-12-24T03:10:47.600Z,1.00
2022-12-24T03:13:14.828Z,0.95
2022-12-24T03:15:42.040Z,1.00
2022-12-24T03:18:09.112Z,0.98
2022-12-24T03:20:36.183Z,1.40
2022-12-24T03:23:03.345Z,1.00
2022-12-24T03:25:30.422Z,1.00
2022-12-24T03:27:57.499Z,0.85
2022-12-24T03:30:24.576Z,1.00
2022-12-24T03:32:51.696Z,1.00
2022-12-24T03:35:18.818Z,1.23
2022-12-24T03:37:45.936Z,1.00
2022-12-24T03:40:13.020Z,0.98
2022-12-24T03:42:40.138Z,1.00
2022-12-24T03:45:07.201Z,1.00
2022-12-24T03:47:34.324Z,0.90
2022-12-24T03:50:01.406Z,0.88
2022-12-24T03:52:28.557Z,0.90
2022-12-24T03:54:55.629Z,0.90
2022-12-24T03:57:22.720Z,0.90
2022-12-24T03:59:49.771Z,1.00
2022-12-24T04:02:17.052Z,1.00
2022-12-24T04:04:44.477Z,0.88
2022-12-24T04:07:11.555Z,0.80
2022-12-24T04:09:39.171Z,1.00
2022-12-24T04:12:06.318Z,0.95
2022-12-24T04:14:33.422Z,0.80
2022-12-24T04:17:00.571Z,1.00
2022-12-24T04:19:27.909Z,1.05
2022-12-24T04:21:55.027Z,1.00
2022-12-24T04:24:22.168Z,1.00
2022-12-24T04:26:49.223Z,0.90
2022-12-24T04:29:16.374Z,1.05
2022-12-24T04:31:43.550Z,0.90
2022-12-24T04:34:10.748Z,1.00
2022-12-24T04:36:37.808Z,1.00
2022-12-24T04:39:04.893Z,0.85
2022-12-24T04:41:31.969Z,1.00
2022-12-24T04:43:59.040Z,1.00
2022-12-24T04:46:26.178Z,0.90
2022-12-24T04:48:53.384Z,0.80
2022-12-24T04:51:20.636Z,0.95
2022-12-24T04:53:48.048Z,0.85
2022-12-24T04:56:15.130Z,0.90
2022-12-24T04:58:42.207Z,0.93
2022-12-24T05:01:09.393Z,0.70
2022-12-24T05:03:36.533Z,0.73
2022-12-24T05:06:03.668Z,0.90
2022-12-24T05:08:30.746Z,1.05
2022-12-24T05:10:57.884Z,0.90
2022-12-24T05:13:28.222Z,0.80
2022-12-24T05:16:01.411Z,0.90
2022-12-24T05:18:28.530Z,0.95
2022-12-24T05:20:55.600Z,0.93
2022-12-24T05:23:41.523Z,0.90
2022-12-24T05:26:23.778Z,0.90
2022-12-24T05:28:50.881Z,0.80
2022-12-24T05:31:17.957Z,0.80
2022-12-24T05:33:45.081Z,0.82
2022-12-24T05:36:12.150Z,1.20
2022-12-24T05:38:39.223Z,0.90
2022-12-24T05:41:06.368Z,0.93
2022-12-24T05:43:33.474Z,0.93
2022-12-24T05:46:00.619Z,0.70
2022-12-24T05:48:27.758Z,0.80
2022-12-24T05:50:54.887Z,0.90
2022-12-24T05:53:21.965Z,0.80
2022-12-24T05:55:49.038Z,0.80
2022-12-24T05:58:16.110Z,0.88
2022-12-24T06:00:43.169Z,1.10
2022-12-24T06:03:10.263Z,0.90
2022-12-24T06:05:37.351Z,0.77
2022-12-24T06:08:04.607Z,0.80
2022-12-24T06:10:31.684Z,0.85
2022-12-24T06:12:58.978Z,0.93
2022-12-24T06:15:26.116Z,0.70
2022-12-24T06:17:53.195Z,0.90
2022-12-24T06:20:20.276Z,0.90
2022-12-24T06:22:47.385Z,0.77
2022-12-24T06:25:14.504Z,0.80
2022-12-24T06:27:41.586Z,0.82
2022-12-24T06:30:08.652Z,0.82
2022-12-24T06:32:35.729Z,0.90
2022-12-24T06:35:02.803Z,0.80
2022-12-24T06:37:29.883Z,0.80
2022-12-24T06:39:56.940Z,0.88
2022-12-24T06:42:24.469Z,0.70
2022-12-24T06:44:51.595Z,0.63
2022-12-24T06:47:18.686Z,0.95
2022-12-24T06:49:45.776Z,0.88
2022-12-24T06:52:12.929Z,0.88
2022-12-24T06:54:40.015Z,0.63
2022-12-24T06:57:07.403Z,0.90
2022-12-24T06:59:34.546Z,1.05
2022-12-24T07:02:01.814Z,0.85
2022-12-24T07:04:29.026Z,1.00
2022-12-24T07:06:56.205Z,0.90
2022-12-24T07:09:23.272Z,0.90
2022-12-24T07:11:50.341Z,0.77
2022-12-24T07:14:17.439Z,0.70
2022-12-24T07:16:44.593Z,0.80
2022-12-24T07:19:12.305Z,0.90
2022-12-24T07:21:39.395Z,0.80
2022-12-24T07:24:06.483Z,1.00
2022-12-24T07:26:33.692Z,0.90
2022-12-24T07:29:00.763Z,0.73
2022-12-24T07:31:27.929Z,0.80
2022-12-24T07:33:55.623Z,0.80
2022-12-24T07:36:22.733Z,0.90
2022-12-24T07:38:49.810Z,0.80
2022-12-24T07:41:16.922Z,0.85
2022-12-24T07:43:44.015Z,0.70
2022-12-24T07:46:11.124Z,0.80
2022-12-24T07:48:38.205Z,0.80
2022-12-24T07:51:05.298Z,0.90
2022-12-24T07:53:32.410Z,0.82
2022-12-24T07:55:59.591Z,0.90
2022-12-24T07:58:26.668Z,0.70
2022-12-24T08:00:53.745Z,0.82
2022-12-24T08:03:20.942Z,0.88
2022-12-24T08:05:48.171Z,0.77
2022-12-24T08:08:15.257Z,0.85
2022-12-24T08:10:42.316Z,0.80
2022-12-24T08:13:09.450Z,0.80
2022-12-24T08:15:36.513Z,0.88
2022-12-24T08:18:03.634Z,0.80
2022-12-24T08:20:30.714Z,0.88
2022-12-24T08:22:57.801Z,0.80
2022-12-24T08:25:24.875Z,0.82
2022-12-24T08:27:51.951Z,0.90
2022-12-24T08:30:21.343Z,0.90
2022-12-24T08:32:48.772Z,0.90
2022-12-24T08:35:15.934Z,0.75
2022-12-24T08:37:43.043Z,0.77
2022-12-24T08:40:10.139Z,0.90
2022-12-24T08:42:37.262Z,0.70
2022-12-24T08:45:04.370Z,1.15
2022-12-24T08:47:31.664Z,0.70
2022-12-24T08:49:58.738Z,0.75
2022-12-24T08:52:25.848Z,1.58
2022-12-24T08:54:52.928Z,0.93
2022-12-24T08:57:20.669Z,0.80
2022-12-24T08:59:47.738Z,0.82
2022-12-24T09:02:14.991Z,0.80
2022-12-24T09:04:42.240Z,0.80
2022-12-24T09:07:09.314Z,0.70
2022-12-24T09:09:38.291Z,0.70
2022-12-24T09:12:05.514Z,0.80
2022-12-24T09:14:32.598Z,0.70
2022-12-24T09:16:59.958Z,0.70
2022-12-24T09:19:27.080Z,0.90
2022-12-24T09:21:54.143Z,0.90
2022-12-24T09:24:21.246Z,0.80
2022-12-24T09:26:55.659Z,1.00
2022-12-24T09:29:24.733Z,0.80
2022-12-24T09:31:51.929Z,0.90
2022-12-24T09:34:19.075Z,0.80
2022-12-24T09:36:46.566Z,1.00
2022-12-24T09:39:13.643Z,0.80
2022-12-24T09:41:40.732Z,0.90
2022-12-24T09:44:07.791Z,0.80
2022-12-24T09:46:34.879Z,0.80
2022-12-24T09:49:01.972Z,0.70
2022-12-24T09:51:29.053Z,0.80
2022-12-24T09:53:56.130Z,0.90
2022-12-24T09:56:23.210Z,0.90
2022-12-24T09:58:50.289Z,0.90
2022-12-24T10:01:17.428Z,0.60
2022-12-24T10:03:44.628Z,0.80
2022-12-24T10:06:11.731Z,0.90
2022-12-24T10:08:38.816Z,0.70
2022-12-24T10:11:05.910Z,0.90
2022-12-24T10:13:32.974Z,0.70
2022-12-24T10:16:00.095Z,0.85
2022-12-24T10:18:27.586Z,0.93
2022-12-24T10:20:54.649Z,0.80
2022-12-24T10:23:21.836Z,0.80
2022-12-24T10:25:49.041Z,1.00
2022-12-24T10:28:16.185Z,0.90
2022-12-24T10:30:43.286Z,0.88
2022-12-24T10:33:10.398Z,0.93
2022-12-24T10:35:37.478Z,1.00
2022-12-24T10:38:04.570Z,0.93
2022-12-24T10:40:31.886Z,0.80
2022-12-24T10:42:58.954Z,1.00
2022-12-24T10:45:26.033Z,1.35
2022-12-24T10:47:53.179Z,0.80
2022-12-24T10:50:20.248Z,0.80
2022-12-24T10:52:47.326Z,0.98
2022-12-24T10:55:14.455Z,0.88
2022-12-24T10:57:41.568Z,0.90
2022-12-24T11:00:08.725Z,0.88
2022-12-24T11:02:36.010Z,0.88
2022-12-24T11:05:03.287Z,0.90
2022-12-24T11:07:30.402Z,0.93
2022-12-24T11:09:57.560Z,0.82
2022-12-24T11:12:24.695Z,0.90
2022-12-24T11:14:51.781Z,0.90
2022-12-24T11:17:18.873Z,1.13
2022-12-24T11:19:45.970Z,0.90
2022-12-24T11:22:13.060Z,0.98
2022-12-24T11:24:43.732Z,0.88
2022-12-24T11:27:13.989Z,0.98
2022-12-24T11:29:41.079Z,1.00
2022-12-24T11:32:08.137Z,0.80
2022-12-24T11:34:35.420Z,0.85
2022-12-24T11:37:02.490Z,1.05
2022-12-24T11:39:29.574Z,1.00
2022-12-24T11:41:56.664Z,1.00
2022-12-24T11:44:23.756Z,0.93
2022-12-24T11:46:56.646Z,1.08
2022-12-24T11:49:23.867Z,0.90
2022-12-24T11:51:50.968Z,0.88
2022-12-24T11:54:18.121Z,0.90
2022-12-24T11:56:45.186Z,0.80
2022-12-24T11:59:12.311Z,1.00
2022-12-24T12:01:39.520Z,0.90
2022-12-24T12:04:06.693Z,0.88
2022-12-24T12:06:33.803Z,1.13
2022-12-24T12:09:01.033Z,0.90
2022-12-24T12:11:28.154Z,0.90
2022-12-24T12:13:55.243Z,0.98
2022-12-24T12:16:22.423Z,1.20
2022-12-24T12:18:49.552Z,1.17
2022-12-24T12:21:16.652Z,0.90
2022-12-24T12:23:43.719Z,1.15
2022-12-24T12:26:11.202Z,1.08
2022-12-24T12:28:38.461Z,1.30
2022-12-24T12:31:10.366Z,1.10
2022-12-24T12:33:40.999Z,1.08
2022-12-24T12:36:08.107Z,0.80
2022-12-24T12:38:35.329Z,0.93
2022-12-24T12:41:02.707Z,1.02
2022-12-24T12:43:29.786Z,1.00
2022-12-24T12:45:56.882Z,1.00
2022-12-24T12:48:24.036Z,0.90
2022-12-24T12:50:51.120Z,1.20
2022-12-24T12:53:18.197Z,1.05
2022-12-24T12:55:45.473Z,1.20
2022-12-24T12:58:12.923Z,1.10
2022-12-24T13:00:40.028Z,0.85
2022-12-24T13:03:07.265Z,1.00
2022-12-24T13:05:34.478Z,1.00
2022-12-24T13:08:01.774Z,1.20
2022-12-24T13:10:28.848Z,1.10
2022-12-24T13:12:55.955Z,1.17
2022-12-24T13:15:23.077Z,1.00
2022-12-24T13:17:50.292Z,0.93
2022-12-24T13:20:17.399Z,0.93
2022-12-24T13:22:44.465Z,0.95
2022-12-24T13:25:11.533Z,1.10
2022-12-24T13:27:38.591Z,1.20
2022-12-24T13:30:09.966Z,1.23
2022-12-24T13:32:37.621Z,1.20
2022-12-24T13:35:04.767Z,1.05
2022-12-24T13:37:32.368Z,1.27
2022-12-24T13:39:59.446Z,0.90
2022-12-24T13:42:26.524Z,1.00
2022-12-24T13:44:53.588Z,1.00
2022-12-24T13:47:31.604Z,1.10
2022-12-24T13:49:59.921Z,0.98
2022-12-24T13:52:27.111Z,1.10
2022-12-24T13:54:54.189Z,1.17
2022-12-24T13:57:21.284Z,1.00
2022-12-24T13:59:48.350Z,1.10
2022-12-24T14:02:15.536Z,1.35
2022-12-24T14:04:42.674Z,1.20
2022-12-24T14:07:11.461Z,1.10
2022-12-24T14:09:38.537Z,0.95
2022-12-24T14:12:05.622Z,1.20
2022-12-24T14:14:32.718Z,1.40
2022-12-24T14:17:00.015Z,1.13
2022-12-24T14:19:29.980Z,1.13
2022-12-24T14:21:59.458Z,1.33
2022-12-24T14:24:26.637Z,1.20
2022-12-24T14:26:53.704Z,1.00
2022-12-24T14:29:24.875Z,1.10
2022-12-24T14:31:52.851Z,1.05
2022-12-24T14:34:19.992Z,1.02
2022-12-24T14:36:47.062Z,1.40
2022-12-24T14:39:14.138Z,0.90
2022-12-24T14:41:41.195Z,1.13
2022-12-24T14:44:08.289Z,1.30
2022-12-24T14:46:35.354Z,1.10
2022-12-24T14:49:02.454Z,0.98
2022-12-24T14:51:29.531Z,1.17
2022-12-24T14:53:56.654Z,1.27
2022-12-24T14:56:23.732Z,0.90
2022-12-24T14:58:50.876Z,1.10
2022-12-24T15:01:18.056Z,1.10
2022-12-24T15:03:45.217Z,0.90
2022-12-24T15:06:12.292Z,0.90
2022-12-24T15:08:39.409Z,1.10
2022-12-24T15:11:06.527Z,1.00
2022-12-24T15:13:36.705Z,1.00
2022-12-24T15:16:04.218Z,1.00
2022-12-24T15:18:31.317Z,1.05
2022-12-24T15:21:03.783Z,1.00
2022-12-24T15:23:31.609Z,1.30
2022-12-24T15:25:58.689Z,1.00
2022-12-24T15:28:25.782Z,0.90
2022-12-24T15:30:52.925Z,1.00
2022-12-24T15:33:19.997Z,1.17
2022-12-24T15:35:47.134Z,1.20
2022-12-24T15:38:18.676Z,0.90
2022-12-24T15:40:45.890Z,1.10
2022-12-24T15:43:12.991Z,1.10
2022-12-24T15:45:40.113Z,1.10
2022-12-24T15:48:07.221Z,1.10
2022-12-24T15:50:34.308Z,0.93
2022-12-24T15:53:19.283Z,1.33
2022-12-24T15:55:49.053Z,1.02
2022-12-24T15:58:16.849Z,1.08
2022-12-24T16:00:43.953Z,1.05
2022-12-24T16:03:11.144Z,1.10
2022-12-24T16:05:38.644Z,1.20
2022-12-24T16:08:08.673Z,1.00
2022-12-24T16:10:35.785Z,0.95
2022-12-24T16:13:02.864Z,1.00
2022-12-24T16:15:30.005Z,1.20
2022-12-24T16:17:57.270Z,1.10
2022-12-24T16:20:24.374Z,1.10
2022-12-24T16:22:51.497Z,0.90
2022-12-24T16:25:18.562Z,1.05
2022-12-24T16:27:45.651Z,0.85
2022-12-24T16:30:12.737Z,0.98
2022-12-24T16:32:39.817Z,1.30
2022-12-24T16:35:06.894Z,1.17
2022-12-24T16:37:34.020Z,1.02
2022-12-24T16:40:01.125Z,1.48
2022-12-24T16:42:47.215Z,1.13
2022-12-24T16:47:43.353Z,1.20
2022-12-24T16:50:10.779Z,1.00
2022-12-24T16:52:37.970Z,0.95
2022-12-24T16:55:05.299Z,1.13
2022-12-24T16:57:32.510Z,1.20
2022-12-24T16:59:59.981Z,1.20
2022-12-24T17:02:27.168Z,1.10
2022-12-24T17:04:54.362Z,1.20
2022-12-24T17:07:22.034Z,1.15
2022-12-24T17:09:49.207Z,1.17
2022-12-24T17:12:16.361Z,1.20
2022-12-24T17:14:43.498Z,1.20
2022-12-24T17:17:10.581Z,1.20
2022-12-24T17:19:37.664Z,1.17
2022-12-24T17:22:05.233Z,1.35
2022-12-24T17:24:32.312Z,1.20
2022-12-24T17:26:59.421Z,1.30
2022-12-24T17:29:26.506Z,1.00
2022-12-24T17:31:53.612Z,1.33
2022-12-24T17:34:20.706Z,1.10
2022-12-24T17:36:47.808Z,1.13
2022-12-24T17:39:14.899Z,1.20
2022-12-24T17:41:41.991Z,1.25
2022-12-24T17:44:09.112Z,1.10
2022-12-24T17:46:36.417Z,1.23
2022-12-24T17:49:03.609Z,1.23
2022-12-24T17:51:33.304Z,1.50
2022-12-24T17:54:00.421Z,0.95
2022-12-24T17:56:27.513Z,1.20
2022-12-24T17:58:54.656Z,1.20
2022-12-24T18:01:21.816Z,1.10
2022-12-24T18:03:49.086Z,1.25
2022-12-24T18:06:16.208Z,1.30
2022-12-24T18:08:43.262Z,1.30
2022-12-24T18:11:10.335Z,1.23
2022-12-24T18:13:37.501Z,1.10
2022-12-24T18:16:04.579Z,1.20
2022-12-24T18:18:31.716Z,1.00
2022-12-24T18:20:58.772Z,1.10
2022-12-24T18:23:25.853Z,1.15
2022-12-24T18:25:52.925Z,1.27
2022-12-24T18:28:19.990Z,1.05
2022-12-24T18:30:47.127Z,1.00
2022-12-24T18:33:14.217Z,1.10
2022-12-24T18:35:41.278Z,1.30
2022-12-24T18:38:08.484Z,1.10
2022-12-24T18:40:35.581Z,1.00
2022-12-24T18:43:02.680Z,1.20
2022-12-24T18:45:29.767Z,1.20
2022-12-24T18:47:56.831Z,1.35
2022-12-24T18:50:23.884Z,1.30
2022-12-24T18:52:51.130Z,1.17
2022-12-24T18:55:18.193Z,1.30
2022-12-24T18:57:45.269Z,1.17
2022-12-24T19:00:12.358Z,1.13
2022-12-24T19:02:39.480Z,1.42
2022-12-24T19:05:06.641Z,1.20
2022-12-24T19:07:33.729Z,1.10
2022-12-24T19:10:00.818Z,1.20
2022-12-24T19:12:27.987Z,1.42
2022-12-24T19:14:55.083Z,1.40
2022-12-24T19:17:22.145Z,1.30
2022-12-24T19:19:49.203Z,1.30
2022-12-24T19:22:16.352Z,1.25
2022-12-24T19:24:43.424Z,1.33
2022-12-24T19:27:10.497Z,1.40
2022-12-24T19:29:37.568Z,1.27
2022-12-24T19:32:04.791Z,1.33
2022-12-24T19:34:31.909Z,1.40
2022-12-24T19:36:58.981Z,1.23
2022-12-24T19:39:31.731Z,1.40
2022-12-24T19:41:59.247Z,1.25
2022-12-24T19:44:26.305Z,1.50
2022-12-24T19:46:53.364Z,1.88
2022-12-24T19:49:20.434Z,1.30
2022-12-24T19:51:47.554Z,1.00
2022-12-24T19:54:18.958Z,1.30
2022-12-24T19:56:46.456Z,1.15
2022-12-24T19:59:13.577Z,1.20
2022-12-24T20:01:40.783Z,1.23
2022-12-24T20:04:08.125Z,1.27
2022-12-24T20:06:35.501Z,1.50
2022-12-24T20:09:02.598Z,1.33
2022-12-24T20:11:29.745Z,1.60
2022-12-24T20:13:56.808Z,1.10
2022-12-24T20:16:24.044Z,1.38
2022-12-24T20:18:51.296Z,1.50
2022-12-24T20:21:18.457Z,1.10
2022-12-24T20:23:45.543Z,1.25
2022-12-24T20:26:12.684Z,1.30
2022-12-24T20:28:39.752Z,1.35
2022-12-24T20:31:06.949Z,1.30
2022-12-24T20:33:34.118Z,1.48
2022-12-24T20:36:01.197Z,1.25
2022-12-24T20:38:28.273Z,1.40
2022-12-24T20:40:55.345Z,1.30
2022-12-24T20:43:24.412Z,1.20
2022-12-24T20:45:51.914Z,1.30
2022-12-24T20:48:19.535Z,1.50
2022-12-24T20:50:46.615Z,1.30
2022-12-24T20:53:13.697Z,1.30
2022-12-24T20:55:40.761Z,1.50
2022-12-24T20:58:07.827Z,1.55
2022-12-24T21:00:35.073Z,1.20
2022-12-24T21:03:02.225Z,1.40
2022-12-24T21:05:29.551Z,1.48
2022-12-24T21:07:56.685Z,1.30
2022-12-24T21:10:26.756Z,1.20
2022-12-24T21:12:58.997Z,1.50
2022-12-24T21:15:26.101Z,1.40
2022-12-24T21:17:53.239Z,1.50
2022-12-24T21:20:20.354Z,1.50
2022-12-24T21:22:47.413Z,1.20
2022-12-24T21:25:14.530Z,1.50
2022-12-24T21:27:41.582Z,1.35
2022-12-24T21:30:08.840Z,1.13
2022-12-24T21:32:35.949Z,1.50
2022-12-24T21:35:03.021Z,1.40
2022-12-24T21:37:30.313Z,1.48
2022-12-24T21:39:57.387Z,1.33
2022-12-24T21:42:24.499Z,1.30
2022-12-24T21:44:51.623Z,1.40
2022-12-24T21:47:18.745Z,1.30
2022-12-24T21:50:04.596Z,1.20
2022-12-24T21:52:31.676Z,1.60
2022-12-24T21:54:58.742Z,1.40
2022-12-24T21:57:44.718Z,1.40
2022-12-24T22:00:26.588Z,1.50
2022-12-24T22:02:53.768Z,1.30
2022-12-24T22:05:20.969Z,1.60
2022-12-24T22:08:06.722Z,1.60
2022-12-24T22:10:52.302Z,1.30
2022-12-24T22:13:19.411Z,1.40
2022-12-24T22:15:46.579Z,1.30
2022-12-24T22:18:15.815Z,1.45
2022-12-24T22:20:42.920Z,1.48
2022-12-24T22:23:09.973Z,1.52
2022-12-24T22:25:37.087Z,1.30
2022-12-24T22:28:04.231Z,1.35
2022-12-24T22:30:31.386Z,1.40
2022-12-24T22:32:58.477Z,1.40
2022-12-24T22:35:25.577Z,1.40
2022-12-24T22:37:56.006Z,1.58
2022-12-24T22:40:28.031Z,1.40
2022-12-24T22:42:55.262Z,1.50
2022-12-24T22:45:22.996Z,1.50
2022-12-24T22:47:50.267Z,1.50
2022-12-24T22:50:17.411Z,1.50
2022-12-24T22:52:44.497Z,1.30
2022-12-24T22:55:11.636Z,1.30
2022-12-24T22:57:38.762Z,1.40
2022-12-24T23:00:05.836Z,1.40
2022-12-24T23:02:33.102Z,1.60
2022-12-24T23:05:00.281Z,1.70
2022-12-24T23:07:27.429Z,1.25
2022-12-24T23:09:54.511Z,1.60
2022-12-24T23:12:41.565Z,1.80
2022-12-24T23:15:08.669Z,1.42
2022-12-24T23:17:35.728Z,1.40
2022-12-24T23:20:03.902Z,1.52
2022-12-24T23:22:31.068Z,1.80
2022-12-24T23:24:58.141Z,1.30
2022-12-24T23:27:25.247Z,1.50
2022-12-24T23:29:52.315Z,1.50
2022-12-24T23:32:19.409Z,1.70
2022-12-24T23:34:46.490Z,1.60
2022-12-24T23:37:13.710Z,1.42
2022-12-24T23:39:40.847Z,1.70
2022-12-24T23:42:07.938Z,1.60
2022-12-24T23:44:35.013Z,1.60
2022-12-24T23:47:02.235Z,1.58
2022-12-24T23:49:29.388Z,1.48
2022-12-24T23:51:56.452Z,1.50
2022-12-24T23:54:23.552Z,1.70
2022-12-24T23:56:50.631Z,1.60
2022-12-24T23:59:17.708Z,1.30
